sensor_id;sensor_type;location;lat;lon;timestamp;P1;durP1;ratioP1;P2;durP2;ratioP2
13999;SDS011;7075;53.574;10.054;2023-05-23T00:00:26;7.67;;;6.27;;
13999;SDS011;7075;53.574;10.054;2023-05-23T00:02:52;8.60;;;6.77;;
13999;SDS011;7075;53.574;10.054;2023-05-23T00:05:18;7.40;;;6.70;;
13999;SDS011;7075;53.574;10.054;2023-05-23T00:07:44;8.47;;;7.57;;
13999;SDS011;7075;53.574;10.054;2023-05-23T00:10:10;8.67;;;6.60;;
13999;SDS011;7075;53.574;10.054;2023-05-23T00:12:35;9.63;;;7.33;;
13999;SDS011;7075;53.574;10.054;2023-05-23T00:15:03;8.53;;;7.70;;
13999;SDS011;7075;53.574;10.054;2023-05-23T00:17:33;8.00;;;7.03;;
13999;SDS011;7075;53.574;10.054;2023-05-23T00:20:01;7.43;;;6.60;;
13999;SDS011;7075;53.574;10.054;2023-05-23T00:22:27;8.00;;;7.20;;
13999;SDS011;7075;53.574;10.054;2023-05-23T00:24:53;7.80;;;6.77;;
13999;SDS011;7075;53.574;10.054;2023-05-23T00:27:18;7.87;;;7.10;;
13999;SDS011;7075;53.574;10.054;2023-05-23T00:29:44;11.07;;;7.63;;
13999;SDS011;7075;53.574;10.054;2023-05-23T00:32:09;8.10;;;7.40;;
13999;SDS011;7075;53.574;10.054;2023-05-23T00:34:35;9.07;;;7.57;;
13999;SDS011;7075;53.574;10.054;2023-05-23T00:37:01;9.23;;;7.40;;
13999;SDS011;7075;53.574;10.054;2023-05-23T00:39:28;8.30;;;7.27;;
13999;SDS011;7075;53.574;10.054;2023-05-23T00:41:54;9.43;;;7.43;;
13999;SDS011;7075;53.574;10.054;2023-05-23T00:44:21;10.03;;;8.00;;
13999;SDS011;7075;53.574;10.054;2023-05-23T00:46:48;7.97;;;7.17;;
13999;SDS011;7075;53.574;10.054;2023-05-23T00:49:16;8.10;;;7.37;;
13999;SDS011;7075;53.574;10.054;2023-05-23T00:51:44;7.77;;;6.97;;
13999;SDS011;7075;53.574;10.054;2023-05-23T00:54:10;9.77;;;7.70;;
13999;SDS011;7075;53.574;10.054;2023-05-23T00:56:37;8.97;;;8.10;;
13999;SDS011;7075;53.574;10.054;2023-05-23T00:59:03;9.43;;;7.60;;
13999;SDS011;7075;53.574;10.054;2023-05-23T01:01:30;8.80;;;7.87;;
13999;SDS011;7075;53.574;10.054;2023-05-23T01:03:57;11.13;;;8.20;;
13999;SDS011;7075;53.574;10.054;2023-05-23T01:06:23;8.60;;;7.73;;
13999;SDS011;7075;53.574;10.054;2023-05-23T01:08:48;9.03;;;8.13;;
13999;SDS011;7075;53.574;10.054;2023-05-23T01:11:19;9.90;;;8.30;;
13999;SDS011;7075;53.574;10.054;2023-05-23T01:14:14;9.27;;;8.17;;
13999;SDS011;7075;53.574;10.054;2023-05-23T01:21:54;10.13;;;8.90;;
13999;SDS011;7075;53.574;10.054;2023-05-23T01:29:42;9.03;;;8.13;;
13999;SDS011;7075;53.574;10.054;2023-05-23T01:32:10;8.93;;;8.00;;
13999;SDS011;7075;53.574;10.054;2023-05-23T01:34:37;9.67;;;8.70;;
13999;SDS011;7075;53.574;10.054;2023-05-23T01:37:09;10.97;;;9.40;;
13999;SDS011;7075;53.574;10.054;2023-05-23T01:39:35;9.57;;;8.67;;
13999;SDS011;7075;53.574;10.054;2023-05-23T01:42:02;10.77;;;8.63;;
13999;SDS011;7075;53.574;10.054;2023-05-23T01:44:28;10.57;;;9.57;;
13999;SDS011;7075;53.574;10.054;2023-05-23T01:46:54;11.20;;;9.93;;
13999;SDS011;7075;53.574;10.054;2023-05-23T01:49:19;11.90;;;9.93;;
13999;SDS011;7075;53.574;10.054;2023-05-23T01:51:47;10.63;;;9.63;;
13999;SDS011;7075;53.574;10.054;2023-05-23T01:54:14;11.37;;;10.20;;
13999;SDS011;7075;53.574;10.054;2023-05-23T01:56:41;11.00;;;10.00;;
13999;SDS011;7075;53.574;10.054;2023-05-23T01:59:07;11.50;;;10.30;;
13999;SDS011;7075;53.574;10.054;2023-05-23T02:01:35;12.23;;;11.03;;
13999;SDS011;7075;53.574;10.054;2023-05-23T02:04:02;15.43;;;13.93;;
13999;SDS011;7075;53.574;10.054;2023-05-23T02:06:28;16.97;;;15.10;;
13999;SDS011;7075;53.574;10.054;2023-05-23T02:08:53;20.50;;;18.33;;
13999;SDS011;7075;53.574;10.054;2023-05-23T02:11:19;21.97;;;19.77;;
13999;SDS011;7075;53.574;10.054;2023-05-23T02:13:46;22.03;;;19.77;;
13999;SDS011;7075;53.574;10.054;2023-05-23T02:16:11;22.80;;;20.60;;
13999;SDS011;7075;53.574;10.054;2023-05-23T02:18:37;21.80;;;19.80;;
13999;SDS011;7075;53.574;10.054;2023-05-23T02:21:06;23.93;;;21.60;;
13999;SDS011;7075;53.574;10.054;2023-05-23T02:23:32;23.47;;;21.17;;
13999;SDS011;7075;53.574;10.054;2023-05-23T02:28:42;25.10;;;22.50;;
13999;SDS011;7075;53.574;10.054;2023-05-23T02:31:08;26.03;;;23.30;;
13999;SDS011;7075;53.574;10.054;2023-05-23T02:33:33;27.60;;;24.87;;
13999;SDS011;7075;53.574;10.054;2023-05-23T02:35:59;28.63;;;25.87;;
13999;SDS011;7075;53.574;10.054;2023-05-23T02:38:26;29.63;;;26.40;;
13999;SDS011;7075;53.574;10.054;2023-05-23T02:40:51;29.87;;;26.80;;
13999;SDS011;7075;53.574;10.054;2023-05-23T02:43:18;31.07;;;27.77;;
13999;SDS011;7075;53.574;10.054;2023-05-23T02:45:44;34.23;;;27.17;;
13999;SDS011;7075;53.574;10.054;2023-05-23T02:48:09;32.93;;;28.10;;
13999;SDS011;7075;53.574;10.054;2023-05-23T02:50:36;30.37;;;27.17;;
13999;SDS011;7075;53.574;10.054;2023-05-23T02:53:01;36.33;;;28.43;;
13999;SDS011;7075;53.574;10.054;2023-05-23T02:55:27;42.07;;;29.60;;
13999;SDS011;7075;53.574;10.054;2023-05-23T02:57:53;36.87;;;29.33;;
13999;SDS011;7075;53.574;10.054;2023-05-23T03:00:18;35.37;;;30.30;;
13999;SDS011;7075;53.574;10.054;2023-05-23T03:02:44;34.13;;;28.63;;
13999;SDS011;7075;53.574;10.054;2023-05-23T03:05:10;34.70;;;29.97;;
13999;SDS011;7075;53.574;10.054;2023-05-23T03:07:35;38.30;;;29.10;;
13999;SDS011;7075;53.574;10.054;2023-05-23T03:10:02;41.00;;;29.30;;
13999;SDS011;7075;53.574;10.054;2023-05-23T03:12:27;39.13;;;28.63;;
13999;SDS011;7075;53.574;10.054;2023-05-23T03:14:53;38.90;;;27.40;;
13999;SDS011;7075;53.574;10.054;2023-05-23T03:17:19;37.73;;;26.50;;
13999;SDS011;7075;53.574;10.054;2023-05-23T03:19:45;44.67;;;26.50;;
13999;SDS011;7075;53.574;10.054;2023-05-23T03:22:10;40.23;;;27.67;;
13999;SDS011;7075;53.574;10.054;2023-05-23T03:24:36;36.17;;;26.97;;
13999;SDS011;7075;53.574;10.054;2023-05-23T03:27:02;29.33;;;25.57;;
13999;SDS011;7075;53.574;10.054;2023-05-23T03:29:28;30.57;;;25.10;;
13999;SDS011;7075;53.574;10.054;2023-05-23T03:31:53;32.33;;;24.07;;
13999;SDS011;7075;53.574;10.054;2023-05-23T03:34:19;34.73;;;24.67;;
13999;SDS011;7075;53.574;10.054;2023-05-23T03:36:44;35.30;;;24.90;;
13999;SDS011;7075;53.574;10.054;2023-05-23T03:39:10;36.73;;;24.23;;
13999;SDS011;7075;53.574;10.054;2023-05-23T03:41:36;28.57;;;22.93;;
13999;SDS011;7075;53.574;10.054;2023-05-23T03:44:01;36.80;;;25.17;;
13999;SDS011;7075;53.574;10.054;2023-05-23T03:46:27;32.33;;;23.60;;
13999;SDS011;7075;53.574;10.054;2023-05-23T03:48:53;30.70;;;23.60;;
13999;SDS011;7075;53.574;10.054;2023-05-23T03:51:19;35.80;;;24.50;;
13999;SDS011;7075;53.574;10.054;2023-05-23T03:53:44;32.17;;;23.57;;
13999;SDS011;7075;53.574;10.054;2023-05-23T03:56:10;30.77;;;24.07;;
13999;SDS011;7075;53.574;10.054;2023-05-23T03:58:35;39.77;;;26.03;;
13999;SDS011;7075;53.574;10.054;2023-05-23T04:01:01;37.13;;;24.57;;
13999;SDS011;7075;53.574;10.054;2023-05-23T04:03:26;31.27;;;23.93;;
13999;SDS011;7075;53.574;10.054;2023-05-23T04:05:56;28.60;;;23.67;;
13999;SDS011;7075;53.574;10.054;2023-05-23T04:08:23;33.17;;;23.77;;
13999;SDS011;7075;53.574;10.054;2023-05-23T04:10:55;31.83;;;24.37;;
13999;SDS011;7075;53.574;10.054;2023-05-23T04:13:20;29.53;;;22.97;;
13999;SDS011;7075;53.574;10.054;2023-05-23T04:15:47;35.03;;;24.27;;
13999;SDS011;7075;53.574;10.054;2023-05-23T04:18:12;28.57;;;22.50;;
13999;SDS011;7075;53.574;10.054;2023-05-23T04:20:39;30.47;;;23.10;;
13999;SDS011;7075;53.574;10.054;2023-05-23T04:23:05;29.57;;;22.50;;
13999;SDS011;7075;53.574;10.054;2023-05-23T04:25:31;31.63;;;22.73;;
13999;SDS011;7075;53.574;10.054;2023-05-23T04:27:58;30.27;;;22.67;;
13999;SDS011;7075;53.574;10.054;2023-05-23T04:30:23;34.93;;;22.57;;
13999;SDS011;7075;53.574;10.054;2023-05-23T04:32:49;32.03;;;21.57;;
13999;SDS011;7075;53.574;10.054;2023-05-23T04:35:15;31.90;;;24.20;;
13999;SDS011;7075;53.574;10.054;2023-05-23T04:37:40;35.67;;;23.70;;
13999;SDS011;7075;53.574;10.054;2023-05-23T04:40:06;31.77;;;22.33;;
13999;SDS011;7075;53.574;10.054;2023-05-23T04:42:32;35.73;;;23.77;;
13999;SDS011;7075;53.574;10.054;2023-05-23T04:44:58;32.00;;;23.70;;
13999;SDS011;7075;53.574;10.054;2023-05-23T04:47:26;33.27;;;23.50;;
13999;SDS011;7075;53.574;10.054;2023-05-23T04:49:52;31.67;;;23.20;;
13999;SDS011;7075;53.574;10.054;2023-05-23T04:52:21;34.53;;;24.67;;
13999;SDS011;7075;53.574;10.054;2023-05-23T04:54:47;36.93;;;25.67;;
13999;SDS011;7075;53.574;10.054;2023-05-23T04:57:13;36.30;;;25.77;;
13999;SDS011;7075;53.574;10.054;2023-05-23T04:59:38;43.60;;;25.13;;
13999;SDS011;7075;53.574;10.054;2023-05-23T05:02:04;40.47;;;26.07;;
13999;SDS011;7075;53.574;10.054;2023-05-23T05:04:30;39.83;;;26.57;;
13999;SDS011;7075;53.574;10.054;2023-05-23T05:06:56;37.00;;;25.27;;
13999;SDS011;7075;53.574;10.054;2023-05-23T05:09:21;36.00;;;24.70;;
13999;SDS011;7075;53.574;10.054;2023-05-23T05:11:47;39.23;;;26.13;;
13999;SDS011;7075;53.574;10.054;2023-05-23T05:14:13;43.00;;;28.10;;
13999;SDS011;7075;53.574;10.054;2023-05-23T05:16:39;40.33;;;25.67;;
13999;SDS011;7075;53.574;10.054;2023-05-23T05:19:04;39.23;;;25.90;;
13999;SDS011;7075;53.574;10.054;2023-05-23T05:21:30;39.03;;;25.67;;
13999;SDS011;7075;53.574;10.054;2023-05-23T05:23:56;36.20;;;25.83;;
13999;SDS011;7075;53.574;10.054;2023-05-23T05:26:21;38.27;;;25.63;;
13999;SDS011;7075;53.574;10.054;2023-05-23T05:28:47;44.83;;;25.93;;
13999;SDS011;7075;53.574;10.054;2023-05-23T05:31:13;36.67;;;25.93;;
13999;SDS011;7075;53.574;10.054;2023-05-23T05:33:39;40.13;;;25.93;;
13999;SDS011;7075;53.574;10.054;2023-05-23T05:36:05;34.67;;;24.10;;
13999;SDS011;7075;53.574;10.054;2023-05-23T05:38:31;41.27;;;27.03;;
13999;SDS011;7075;53.574;10.054;2023-05-23T05:40:57;41.27;;;26.67;;
13999;SDS011;7075;53.574;10.054;2023-05-23T05:43:24;40.70;;;28.13;;
13999;SDS011;7075;53.574;10.054;2023-05-23T05:45:50;40.20;;;26.53;;
13999;SDS011;7075;53.574;10.054;2023-05-23T05:48:15;38.23;;;26.77;;
13999;SDS011;7075;53.574;10.054;2023-05-23T05:50:41;34.70;;;24.87;;
13999;SDS011;7075;53.574;10.054;2023-05-23T05:53:10;34.87;;;25.80;;
13999;SDS011;7075;53.574;10.054;2023-05-23T05:55:37;39.17;;;25.57;;
13999;SDS011;7075;53.574;10.054;2023-05-23T05:58:03;34.87;;;26.07;;
13999;SDS011;7075;53.574;10.054;2023-05-23T06:00:28;38.43;;;28.47;;
13999;SDS011;7075;53.574;10.054;2023-05-23T06:02:54;38.33;;;27.37;;
13999;SDS011;7075;53.574;10.054;2023-05-23T06:05:23;39.90;;;27.10;;
13999;SDS011;7075;53.574;10.054;2023-05-23T06:07:49;51.17;;;30.20;;
13999;SDS011;7075;53.574;10.054;2023-05-23T06:10:15;52.40;;;29.57;;
13999;SDS011;7075;53.574;10.054;2023-05-23T06:12:41;44.80;;;28.97;;
13999;SDS011;7075;53.574;10.054;2023-05-23T06:15:07;43.87;;;28.57;;
13999;SDS011;7075;53.574;10.054;2023-05-23T06:17:33;43.57;;;28.80;;
13999;SDS011;7075;53.574;10.054;2023-05-23T06:19:59;50.47;;;30.93;;
13999;SDS011;7075;53.574;10.054;2023-05-23T06:22:25;44.60;;;30.40;;
13999;SDS011;7075;53.574;10.054;2023-05-23T06:24:50;45.37;;;29.70;;
13999;SDS011;7075;53.574;10.054;2023-05-23T06:27:16;44.37;;;29.40;;
13999;SDS011;7075;53.574;10.054;2023-05-23T06:29:42;49.63;;;29.63;;
13999;SDS011;7075;53.574;10.054;2023-05-23T06:32:07;45.80;;;29.40;;
13999;SDS011;7075;53.574;10.054;2023-05-23T06:34:33;42.30;;;29.37;;
13999;SDS011;7075;53.574;10.054;2023-05-23T06:36:58;40.37;;;27.83;;
13999;SDS011;7075;53.574;10.054;2023-05-23T06:39:24;42.37;;;28.60;;
13999;SDS011;7075;53.574;10.054;2023-05-23T06:41:49;45.30;;;28.77;;
13999;SDS011;7075;53.574;10.054;2023-05-23T06:44:15;44.93;;;28.07;;
13999;SDS011;7075;53.574;10.054;2023-05-23T06:46:44;41.60;;;27.23;;
13999;SDS011;7075;53.574;10.054;2023-05-23T06:49:10;38.77;;;25.17;;
13999;SDS011;7075;53.574;10.054;2023-05-23T06:51:36;37.40;;;25.13;;
13999;SDS011;7075;53.574;10.054;2023-05-23T06:54:02;36.30;;;24.80;;
13999;SDS011;7075;53.574;10.054;2023-05-23T06:56:27;41.07;;;25.90;;
13999;SDS011;7075;53.574;10.054;2023-05-23T06:58:53;35.33;;;24.93;;
13999;SDS011;7075;53.574;10.054;2023-05-23T07:01:18;32.60;;;24.23;;
13999;SDS011;7075;53.574;10.054;2023-05-23T07:03:44;33.23;;;22.97;;
13999;SDS011;7075;53.574;10.054;2023-05-23T07:06:10;30.67;;;21.47;;
13999;SDS011;7075;53.574;10.054;2023-05-23T07:08:36;29.27;;;20.00;;
13999;SDS011;7075;53.574;10.054;2023-05-23T07:11:02;24.43;;;18.87;;
13999;SDS011;7075;53.574;10.054;2023-05-23T07:13:28;25.80;;;18.67;;
13999;SDS011;7075;53.574;10.054;2023-05-23T07:15:54;20.43;;;14.60;;
13999;SDS011;7075;53.574;10.054;2023-05-23T07:18:20;21.33;;;15.03;;
13999;SDS011;7075;53.574;10.054;2023-05-23T07:20:46;13.47;;;11.17;;
13999;SDS011;7075;53.574;10.054;2023-05-23T07:23:11;14.97;;;9.90;;
13999;SDS011;7075;53.574;10.054;2023-05-23T07:25:37;11.10;;;9.67;;
13999;SDS011;7075;53.574;10.054;2023-05-23T07:28:04;11.43;;;9.07;;
13999;SDS011;7075;53.574;10.054;2023-05-23T07:30:29;14.50;;;8.97;;
13999;SDS011;7075;53.574;10.054;2023-05-23T07:32:57;13.27;;;8.57;;
13999;SDS011;7075;53.574;10.054;2023-05-23T07:35:23;10.27;;;8.57;;
13999;SDS011;7075;53.574;10.054;2023-05-23T07:37:53;9.87;;;8.33;;
13999;SDS011;7075;53.574;10.054;2023-05-23T07:40:19;9.17;;;7.93;;
13999;SDS011;7075;53.574;10.054;2023-05-23T07:42:45;9.23;;;8.20;;
13999;SDS011;7075;53.574;10.054;2023-05-23T07:45:12;11.57;;;7.80;;
13999;SDS011;7075;53.574;10.054;2023-05-23T07:47:38;11.30;;;7.33;;
13999;SDS011;7075;53.574;10.054;2023-05-23T07:50:04;9.13;;;6.80;;
13999;SDS011;7075;53.574;10.054;2023-05-23T07:52:30;8.67;;;6.07;;
13999;SDS011;7075;53.574;10.054;2023-05-23T07:54:56;9.97;;;6.60;;
13999;SDS011;7075;53.574;10.054;2023-05-23T07:57:23;7.07;;;6.10;;
13999;SDS011;7075;53.574;10.054;2023-05-23T07:59:49;8.87;;;6.23;;
13999;SDS011;7075;53.574;10.054;2023-05-23T08:02:16;8.13;;;6.50;;
13999;SDS011;7075;53.574;10.054;2023-05-23T08:04:42;6.97;;;5.80;;
13999;SDS011;7075;53.574;10.054;2023-05-23T08:07:09;7.13;;;5.40;;
13999;SDS011;7075;53.574;10.054;2023-05-23T08:09:35;9.90;;;6.20;;
13999;SDS011;7075;53.574;10.054;2023-05-23T08:12:02;7.67;;;5.43;;
13999;SDS011;7075;53.574;10.054;2023-05-23T08:14:27;5.83;;;5.20;;
13999;SDS011;7075;53.574;10.054;2023-05-23T08:16:53;6.90;;;4.90;;
13999;SDS011;7075;53.574;10.054;2023-05-23T08:19:19;6.23;;;4.83;;
13999;SDS011;7075;53.574;10.054;2023-05-23T08:21:46;7.93;;;5.00;;
13999;SDS011;7075;53.574;10.054;2023-05-23T08:24:11;7.93;;;5.50;;
13999;SDS011;7075;53.574;10.054;2023-05-23T08:26:37;5.30;;;4.47;;
13999;SDS011;7075;53.574;10.054;2023-05-23T08:29:03;8.40;;;5.43;;
13999;SDS011;7075;53.574;10.054;2023-05-23T08:31:29;5.60;;;5.00;;
13999;SDS011;7075;53.574;10.054;2023-05-23T08:33:58;5.70;;;4.37;;
13999;SDS011;7075;53.574;10.054;2023-05-23T08:36:24;7.73;;;4.20;;
13999;SDS011;7075;53.574;10.054;2023-05-23T08:38:50;6.20;;;3.60;;
13999;SDS011;7075;53.574;10.054;2023-05-23T08:41:20;5.20;;;4.10;;
13999;SDS011;7075;53.574;10.054;2023-05-23T08:43:47;6.20;;;3.43;;
13999;SDS011;7075;53.574;10.054;2023-05-23T08:46:14;8.33;;;3.63;;
13999;SDS011;7075;53.574;10.054;2023-05-23T08:48:53;7.07;;;3.50;;
13999;SDS011;7075;53.574;10.054;2023-05-23T08:51:41;5.47;;;3.53;;
13999;SDS011;7075;53.574;10.054;2023-05-23T08:54:09;6.17;;;4.17;;
13999;SDS011;7075;53.574;10.054;2023-05-23T08:56:37;5.20;;;3.97;;
13999;SDS011;7075;53.574;10.054;2023-05-23T08:59:03;7.27;;;4.17;;
13999;SDS011;7075;53.574;10.054;2023-05-23T09:01:30;5.67;;;4.30;;
13999;SDS011;7075;53.574;10.054;2023-05-23T09:03:58;5.43;;;3.90;;
13999;SDS011;7075;53.574;10.054;2023-05-23T09:06:29;4.57;;;4.17;;
13999;SDS011;7075;53.574;10.054;2023-05-23T09:08:56;5.10;;;4.40;;
13999;SDS011;7075;53.574;10.054;2023-05-23T09:11:22;6.77;;;4.10;;
13999;SDS011;7075;53.574;10.054;2023-05-23T09:13:49;6.73;;;5.00;;
13999;SDS011;7075;53.574;10.054;2023-05-23T09:16:16;4.97;;;4.57;;
13999;SDS011;7075;53.574;10.054;2023-05-23T09:18:43;4.50;;;3.97;;
13999;SDS011;7075;53.574;10.054;2023-05-23T09:21:10;9.93;;;5.33;;
13999;SDS011;7075;53.574;10.054;2023-05-23T09:23:37;7.63;;;6.40;;
13999;SDS011;7075;53.574;10.054;2023-05-23T09:26:08;8.93;;;6.17;;
13999;SDS011;7075;53.574;10.054;2023-05-23T09:28:35;9.07;;;6.37;;
13999;SDS011;7075;53.574;10.054;2023-05-23T09:31:05;9.90;;;6.47;;
13999;SDS011;7075;53.574;10.054;2023-05-23T09:33:37;12.07;;;7.53;;
13999;SDS011;7075;53.574;10.054;2023-05-23T09:36:14;9.00;;;6.90;;
13999;SDS011;7075;53.574;10.054;2023-05-23T09:38:42;7.97;;;6.53;;
13999;SDS011;7075;53.574;10.054;2023-05-23T09:41:11;11.60;;;6.83;;
13999;SDS011;7075;53.574;10.054;2023-05-23T09:43:38;10.30;;;6.03;;
13999;SDS011;7075;53.574;10.054;2023-05-23T09:46:26;10.33;;;6.00;;
13999;SDS011;7075;53.574;10.054;2023-05-23T09:48:52;8.90;;;5.77;;
13999;SDS011;7075;53.574;10.054;2023-05-23T09:51:21;6.37;;;4.67;;
13999;SDS011;7075;53.574;10.054;2023-05-23T09:53:48;6.67;;;4.80;;
13999;SDS011;7075;53.574;10.054;2023-05-23T09:56:15;5.83;;;4.27;;
13999;SDS011;7075;53.574;10.054;2023-05-23T09:58:46;6.47;;;4.33;;
13999;SDS011;7075;53.574;10.054;2023-05-23T10:01:14;4.30;;;3.50;;
13999;SDS011;7075;53.574;10.054;2023-05-23T10:03:43;7.80;;;3.57;;
13999;SDS011;7075;53.574;10.054;2023-05-23T10:06:17;5.93;;;3.73;;
13999;SDS011;7075;53.574;10.054;2023-05-23T10:08:52;4.40;;;3.53;;
13999;SDS011;7075;53.574;10.054;2023-05-23T10:14:23;3.80;;;3.27;;
13999;SDS011;7075;53.574;10.054;2023-05-23T10:19:42;8.30;;;3.10;;
13999;SDS011;7075;53.574;10.054;2023-05-23T10:22:13;9.10;;;3.10;;
13999;SDS011;7075;53.574;10.054;2023-05-23T10:24:43;9.20;;;3.70;;
13999;SDS011;7075;53.574;10.054;2023-05-23T10:27:11;5.93;;;3.07;;
13999;SDS011;7075;53.574;10.054;2023-05-23T10:29:39;4.50;;;2.57;;
13999;SDS011;7075;53.574;10.054;2023-05-23T10:32:07;8.10;;;2.97;;
13999;SDS011;7075;53.574;10.054;2023-05-23T10:34:53;4.33;;;2.47;;
13999;SDS011;7075;53.574;10.054;2023-05-23T10:37:41;11.63;;;3.07;;
13999;SDS011;7075;53.574;10.054;2023-05-23T10:43:35;6.37;;;2.60;;
13999;SDS011;7075;53.574;10.054;2023-05-23T10:46:15;4.30;;;2.27;;
13999;SDS011;7075;53.574;10.054;2023-05-23T10:48:41;6.90;;;2.47;;
13999;SDS011;7075;53.574;10.054;2023-05-23T10:51:11;7.30;;;2.47;;
13999;SDS011;7075;53.574;10.054;2023-05-23T10:53:42;7.50;;;2.10;;
13999;SDS011;7075;53.574;10.054;2023-05-23T10:56:10;8.37;;;2.70;;
13999;SDS011;7075;53.574;10.054;2023-05-23T10:58:52;7.00;;;2.40;;
13999;SDS011;7075;53.574;10.054;2023-05-23T11:01:19;4.67;;;2.43;;
13999;SDS011;7075;53.574;10.054;2023-05-23T11:06:27;7.80;;;2.50;;
13999;SDS011;7075;53.574;10.054;2023-05-23T11:19:37;5.77;;;2.50;;
13999;SDS011;7075;53.574;10.054;2023-05-23T11:22:03;9.13;;;2.53;;
13999;SDS011;7075;53.574;10.054;2023-05-23T11:24:54;9.23;;;2.80;;
13999;SDS011;7075;53.574;10.054;2023-05-23T11:27:56;6.17;;;2.97;;
13999;SDS011;7075;53.574;10.054;2023-05-23T11:30:16;8.00;;;2.87;;
13999;SDS011;7075;53.574;10.054;2023-05-23T11:32:49;9.97;;;3.03;;
13999;SDS011;7075;53.574;10.054;2023-05-23T11:35:16;6.60;;;2.93;;
13999;SDS011;7075;53.574;10.054;2023-05-23T11:37:42;9.03;;;2.17;;
13999;SDS011;7075;53.574;10.054;2023-05-23T11:42:54;10.40;;;2.77;;
13999;SDS011;7075;53.574;10.054;2023-05-23T11:45:24;6.90;;;2.27;;
13999;SDS011;7075;53.574;10.054;2023-05-23T11:47:51;7.60;;;2.67;;
13999;SDS011;7075;53.574;10.054;2023-05-23T11:50:18;10.03;;;2.70;;
13999;SDS011;7075;53.574;10.054;2023-05-23T11:52:49;8.87;;;2.77;;
13999;SDS011;7075;53.574;10.054;2023-05-23T11:55:19;5.80;;;2.43;;
13999;SDS011;7075;53.574;10.054;2023-05-23T11:57:45;12.67;;;4.00;;
13999;SDS011;7075;53.574;10.054;2023-05-23T12:00:12;11.20;;;2.70;;
13999;SDS011;7075;53.574;10.054;2023-05-23T12:02:41;7.83;;;3.00;;
13999;SDS011;7075;53.574;10.054;2023-05-23T12:05:10;13.27;;;3.17;;
13999;SDS011;7075;53.574;10.054;2023-05-23T12:07:41;13.70;;;3.63;;
13999;SDS011;7075;53.574;10.054;2023-05-23T12:10:11;5.87;;;2.97;;
13999;SDS011;7075;53.574;10.054;2023-05-23T12:12:39;9.07;;;3.20;;
13999;SDS011;7075;53.574;10.054;2023-05-23T12:15:06;11.30;;;3.47;;
13999;SDS011;7075;53.574;10.054;2023-05-23T12:17:33;8.30;;;2.93;;
13999;SDS011;7075;53.574;10.054;2023-05-23T12:20:00;12.43;;;3.87;;
13999;SDS011;7075;53.574;10.054;2023-05-23T12:22:26;9.00;;;2.70;;
13999;SDS011;7075;53.574;10.054;2023-05-23T12:24:53;10.67;;;2.77;;
13999;SDS011;7075;53.574;10.054;2023-05-23T12:27:25;10.10;;;4.07;;
13999;SDS011;7075;53.574;10.054;2023-05-23T12:30:05;12.27;;;3.10;;
13999;SDS011;7075;53.574;10.054;2023-05-23T12:32:41;9.87;;;3.00;;
13999;SDS011;7075;53.574;10.054;2023-05-23T12:35:08;14.17;;;3.37;;
13999;SDS011;7075;53.574;10.054;2023-05-23T12:37:39;7.30;;;2.90;;
13999;SDS011;7075;53.574;10.054;2023-05-23T12:40:10;13.73;;;3.20;;
13999;SDS011;7075;53.574;10.054;2023-05-23T12:45:34;9.77;;;2.87;;
13999;SDS011;7075;53.574;10.054;2023-05-23T12:48:02;7.50;;;3.40;;
13999;SDS011;7075;53.574;10.054;2023-05-23T12:50:29;9.77;;;2.97;;
13999;SDS011;7075;53.574;10.054;2023-05-23T12:52:55;12.10;;;2.97;;
13999;SDS011;7075;53.574;10.054;2023-05-23T12:55:23;12.37;;;3.30;;
13999;SDS011;7075;53.574;10.054;2023-05-23T12:57:50;11.77;;;3.60;;
13999;SDS011;7075;53.574;10.054;2023-05-23T13:00:16;12.17;;;3.30;;
13999;SDS011;7075;53.574;10.054;2023-05-23T13:02:43;9.90;;;3.20;;
13999;SDS011;7075;53.574;10.054;2023-05-23T13:05:08;12.30;;;3.50;;
13999;SDS011;7075;53.574;10.054;2023-05-23T13:07:35;11.40;;;3.07;;
13999;SDS011;7075;53.574;10.054;2023-05-23T13:10:03;9.87;;;2.97;;
13999;SDS011;7075;53.574;10.054;2023-05-23T13:12:30;10.93;;;3.33;;
13999;SDS011;7075;53.574;10.054;2023-05-23T13:14:56;8.97;;;3.27;;
13999;SDS011;7075;53.574;10.054;2023-05-23T13:17:22;8.57;;;2.70;;
13999;SDS011;7075;53.574;10.054;2023-05-23T13:19:49;9.07;;;3.27;;
13999;SDS011;7075;53.574;10.054;2023-05-23T13:22:16;10.23;;;3.50;;
13999;SDS011;7075;53.574;10.054;2023-05-23T13:24:42;8.77;;;2.93;;
13999;SDS011;7075;53.574;10.054;2023-05-23T13:27:08;8.10;;;2.93;;
13999;SDS011;7075;53.574;10.054;2023-05-23T13:29:34;11.93;;;3.53;;
13999;SDS011;7075;53.574;10.054;2023-05-23T13:32:00;12.10;;;3.23;;
13999;SDS011;7075;53.574;10.054;2023-05-23T13:34:25;14.07;;;3.60;;
13999;SDS011;7075;53.574;10.054;2023-05-23T13:36:55;10.63;;;3.70;;
13999;SDS011;7075;53.574;10.054;2023-05-23T13:39:21;12.80;;;3.33;;
13999;SDS011;7075;53.574;10.054;2023-05-23T13:41:48;13.30;;;3.47;;
13999;SDS011;7075;53.574;10.054;2023-05-23T13:44:14;9.67;;;3.23;;
13999;SDS011;7075;53.574;10.054;2023-05-23T13:46:39;15.27;;;3.40;;
13999;SDS011;7075;53.574;10.054;2023-05-23T13:49:05;13.07;;;3.33;;
13999;SDS011;7075;53.574;10.054;2023-05-23T13:51:30;8.77;;;3.30;;
13999;SDS011;7075;53.574;10.054;2023-05-23T13:53:56;11.43;;;3.07;;
13999;SDS011;7075;53.574;10.054;2023-05-23T13:56:22;12.70;;;2.93;;
13999;SDS011;7075;53.574;10.054;2023-05-23T13:58:48;15.17;;;3.17;;
13999;SDS011;7075;53.574;10.054;2023-05-23T14:01:13;7.10;;;2.93;;
13999;SDS011;7075;53.574;10.054;2023-05-23T14:03:39;12.27;;;3.77;;
13999;SDS011;7075;53.574;10.054;2023-05-23T14:06:05;13.13;;;3.83;;
13999;SDS011;7075;53.574;10.054;2023-05-23T14:08:31;13.80;;;3.83;;
13999;SDS011;7075;53.574;10.054;2023-05-23T14:10:57;16.00;;;3.73;;
13999;SDS011;7075;53.574;10.054;2023-05-23T14:13:22;10.07;;;3.67;;
13999;SDS011;7075;53.574;10.054;2023-05-23T14:15:48;11.97;;;3.27;;
13999;SDS011;7075;53.574;10.054;2023-05-23T14:18:18;8.33;;;3.40;;
13999;SDS011;7075;53.574;10.054;2023-05-23T14:20:43;16.20;;;3.50;;
13999;SDS011;7075;53.574;10.054;2023-05-23T14:23:09;15.43;;;3.67;;
13999;SDS011;7075;53.574;10.054;2023-05-23T14:25:34;12.10;;;2.93;;
13999;SDS011;7075;53.574;10.054;2023-05-23T14:28:00;8.43;;;2.60;;
13999;SDS011;7075;53.574;10.054;2023-05-23T14:30:26;10.90;;;3.27;;
13999;SDS011;7075;53.574;10.054;2023-05-23T14:32:51;11.57;;;4.03;;
13999;SDS011;7075;53.574;10.054;2023-05-23T14:35:18;8.97;;;2.80;;
13999;SDS011;7075;53.574;10.054;2023-05-23T14:37:44;13.83;;;2.87;;
13999;SDS011;7075;53.574;10.054;2023-05-23T14:40:10;15.57;;;2.90;;
13999;SDS011;7075;53.574;10.054;2023-05-23T14:42:36;13.03;;;3.53;;
13999;SDS011;7075;53.574;10.054;2023-05-23T14:45:02;14.57;;;3.83;;
13999;SDS011;7075;53.574;10.054;2023-05-23T14:47:28;10.63;;;3.07;;
13999;SDS011;7075;53.574;10.054;2023-05-23T14:49:54;13.73;;;2.57;;
13999;SDS011;7075;53.574;10.054;2023-05-23T14:52:20;17.70;;;2.93;;
13999;SDS011;7075;53.574;10.054;2023-05-23T14:54:45;9.83;;;2.63;;
13999;SDS011;7075;53.574;10.054;2023-05-23T14:57:11;11.13;;;3.17;;
13999;SDS011;7075;53.574;10.054;2023-05-23T14:59:36;13.17;;;3.50;;
13999;SDS011;7075;53.574;10.054;2023-05-23T15:02:02;13.10;;;2.60;;
13999;SDS011;7075;53.574;10.054;2023-05-23T15:04:28;13.13;;;3.83;;
13999;SDS011;7075;53.574;10.054;2023-05-23T15:06:54;13.03;;;4.60;;
13999;SDS011;7075;53.574;10.054;2023-05-23T15:09:20;8.60;;;2.60;;
13999;SDS011;7075;53.574;10.054;2023-05-23T15:11:46;14.23;;;3.20;;
13999;SDS011;7075;53.574;10.054;2023-05-23T15:14:13;10.37;;;2.77;;
13999;SDS011;7075;53.574;10.054;2023-05-23T15:16:40;11.37;;;3.23;;